Time,TemperatureF,DewpointF,PressureIn,WindDirection,WindDirectionDegrees,WindSpeedMPH,WindSpeedGustMPH,Humidity,HourlyPrecipIn,Conditions,Clouds,dailyrainin,SoftwareType,DateUTC
2013-01-23 00:09:00,1.4,-10.6,29.94,SW,225,2.2,-999.0,56,-99.99,,,0.00,Acu-Link.com,2013-01-23 05:09:00,
2013-01-23 00:25:00,1.0,-11.0,29.94,South,180,1.1,-999.0,56,-99.99,,,0.00,Acu-Link.com,2013-01-23 05:25:00,
2013-01-23 00:40:00,0.5,-11.1,29.94,West,270,2.7,-999.0,57,-99.99,,,0.00,Acu-Link.com,2013-01-23 05:40:00,
2013-01-23 00:55:00,0.1,-11.1,29.93,WSW,247,1.7,-999.0,58,-99.99,,,0.00,Acu-Link.com,2013-01-23 05:55:00,
2013-01-23 01:11:00,0.1,-10.4,29.94,NNW,337,1.1,-999.0,60,-99.99,,,0.00,Acu-Link.com,2013-01-23 06:11:00,
2013-01-23 01:26:00,0.1,-10.8,29.94,West,270,1.1,-999.0,59,-99.99,,,0.00,Acu-Link.com,2013-01-23 06:26:00,
2013-01-23 02:12:00,0.7,-12.7,29.94,WNW,292,1.1,-999.0,52,-99.99,,,0.00,Acu-Link.com,2013-01-23 07:12:00,
2013-01-23 02:27:00,0.7,-12.7,29.94,NNE,22,1.7,-999.0,52,-99.99,,,0.00,Acu-Link.com,2013-01-23 07:27:00,
2013-01-23 02:42:00,0.5,-12.9,29.94,West,270,6.8,-999.0,52,-99.99,,,0.00,Acu-Link.com,2013-01-23 07:42:00,
2013-01-23 02:58:00,0.9,-12.2,29.94,ENE,67,1.7,-999.0,53,-99.99,,,0.00,Acu-Link.com,2013-01-23 07:58:00,
2013-01-23 03:13:00,0.9,-10.7,29.94,West,270,3.2,-999.0,57,-99.99,,,0.00,Acu-Link.com,2013-01-23 08:13:00,
2013-01-23 03:28:00,0.9,-9.7,29.94,WSW,247,2.2,-999.0,60,-99.99,,,0.00,Acu-Link.com,2013-01-23 08:28:00,
2013-01-23 03:44:00,0.1,-8.8,29.95,ESE,112,0.0,-999.0,65,-99.99,,,0.00,Acu-Link.com,2013-01-23 08:44:00,
2013-01-23 03:59:00,-0.8,-9.1,29.95,SSW,202,0.0,-999.0,67,-99.99,,,0.00,Acu-Link.com,2013-01-23 08:59:00,
2013-01-23 04:15:00,-1.1,-9.4,29.95,NW,315,2.2,-999.0,67,-99.99,,,0.00,Acu-Link.com,2013-01-23 09:15:00,
2013-01-23 04:30:00,-3.1,-11.6,29.96,WNW,292,0.0,-999.0,66,-99.99,,,0.00,Acu-Link.com,2013-01-23 09:30:00,
2013-01-23 04:45:00,-4.5,-12.9,29.96,South,180,0.0,-999.0,66,-99.99,,,0.00,Acu-Link.com,2013-01-23 09:45:00,
2013-01-23 05:00:00,-5.8,-13.9,29.97,West,270,0.0,-999.0,67,-99.99,,,0.00,Acu-Link.com,2013-01-23 10:00:00,
2013-01-23 05:15:00,-6.3,-14.1,29.97,SSE,157,2.2,-999.0,68,-99.99,,,0.00,Acu-Link.com,2013-01-23 10:15:00,
2013-01-23 05:30:00,-6.3,-13.8,29.98,South,180,0.0,-999.0,69,-99.99,,,0.00,Acu-Link.com,2013-01-23 10:30:00,
2013-01-23 05:46:00,-6.7,-14.2,29.98,SSE,157,0.0,-999.0,69,-99.99,,,0.00,Acu-Link.com,2013-01-23 10:46:00,
2013-01-23 06:01:00,-6.7,-13.9,29.99,South,180,0.0,-999.0,70,-99.99,,,0.00,Acu-Link.com,2013-01-23 11:01:00,
2013-01-23 06:16:00,-6.2,-13.1,29.99,South,180,1.1,-999.0,71,-99.99,,,0.00,Acu-Link.com,2013-01-23 11:16:00,
2013-01-23 06:31:00,-6.2,-13.1,29.99,WSW,247,1.7,-999.0,71,-99.99,,,0.00,Acu-Link.com,2013-01-23 11:31:00,
2013-01-23 07:02:00,-7.1,-14.3,30.00,SSW,202,0.0,-999.0,70,-99.99,,,0.00,Acu-Link.com,2013-01-23 12:02:00,
2013-01-23 07:17:00,-7.8,-15.2,30.00,SSW,202,0.0,-999.0,69,-99.99,,,0.00,Acu-Link.com,2013-01-23 12:17:00,
2013-01-23 07:33:00,-8.1,-15.5,30.00,SSE,157,0.0,-999.0,69,-99.99,,,0.00,Acu-Link.com,2013-01-23 12:33:00,
2013-01-23 07:48:00,-6.5,-14.0,30.01,East,90,0.0,-999.0,69,-99.99,,,0.00,Acu-Link.com,2013-01-23 12:48:00,
2013-01-23 08:03:00,-5.1,-13.2,30.01,SW,225,1.7,-999.0,67,-99.99,,,0.00,Acu-Link.com,2013-01-23 13:03:00,
2013-01-23 08:19:00,-2.7,-11.8,30.02,SSW,202,1.1,-999.0,64,-99.99,,,0.00,Acu-Link.com,2013-01-23 13:19:00,
2013-01-23 08:34:00,-1.8,-11.6,30.02,SSE,157,1.7,-999.0,62,-99.99,,,0.00,Acu-Link.com,2013-01-23 13:34:00,
2013-01-23 08:49:00,-0.8,-11.3,30.02,WNW,292,2.2,-999.0,60,-99.99,,,0.00,Acu-Link.com,2013-01-23 13:49:00,
2013-01-23 09:05:00,-2.2,-13.0,30.03,SW,225,1.1,-999.0,59,-99.99,,,0.00,Acu-Link.com,2013-01-23 14:05:00,
2013-01-23 09:20:00,-2.4,-13.5,30.03,West,270,2.7,-999.0,58,-99.99,,,0.00,Acu-Link.com,2013-01-23 14:20:00,
2013-01-23 09:35:00,-0.6,-11.8,30.03,NW,315,3.2,-999.0,58,-99.99,,,0.00,Acu-Link.com,2013-01-23 14:35:00,
2013-01-23 09:50:00,2.3,-10.9,30.03,NW,315,2.7,-999.0,53,-99.99,,,0.00,Acu-Link.com,2013-01-23 14:50:00,
2013-01-23 10:06:00,3.2,-10.8,30.03,SSE,157,1.7,-999.0,51,-99.99,,,0.00,Acu-Link.com,2013-01-23 15:06:00,
2013-01-23 10:21:00,3.0,-11.4,30.03,SSW,202,2.7,-999.0,50,-99.99,,,0.00,Acu-Link.com,2013-01-23 15:21:00,
2013-01-23 10:36:00,3.6,-11.6,30.03,NNW,337,2.2,-999.0,48,-99.99,,,0.00,Acu-Link.com,2013-01-23 15:36:00,
2013-01-23 10:52:00,4.3,-11.8,30.02,West,270,4.2,-999.0,46,-99.99,,,0.00,Acu-Link.com,2013-01-23 15:52:00,
2013-01-23 11:07:00,4.5,-12.1,30.02,West,270,5.3,-999.0,45,-99.99,,,0.00,Acu-Link.com,2013-01-23 16:07:00,
2013-01-23 11:22:00,3.9,-13.6,30.02,SW,225,4.2,-999.0,43,-99.99,,,0.00,Acu-Link.com,2013-01-23 16:22:00,
2013-01-23 11:38:00,4.5,-13.9,30.01,WSW,247,6.3,-999.0,41,-99.99,,,0.00,Acu-Link.com,2013-01-23 16:38:00,
2013-01-23 11:53:00,4.6,-13.4,30.00,ENE,67,4.2,-999.0,42,-99.99,,,0.00,Acu-Link.com,2013-01-23 16:53:00,
2013-01-23 12:08:00,4.8,-13.7,29.99,SW,225,5.8,-999.0,41,-99.99,,,0.00,Acu-Link.com,2013-01-23 17:08:00,
2013-01-23 12:23:00,4.8,-12.7,29.99,West,270,3.2,-999.0,43,-99.99,,,0.00,Acu-Link.com,2013-01-23 17:23:00,
2013-01-23 12:39:00,5.5,-12.6,29.98,SSE,157,2.7,-999.0,42,-99.99,,,0.00,Acu-Link.com,2013-01-23 17:39:00,
2013-01-23 12:54:00,5.2,-13.3,29.98,East,90,1.7,-999.0,41,-99.99,,,0.00,Acu-Link.com,2013-01-23 17:54:00,
2013-01-23 13:09:00,5.2,-13.8,29.98,WSW,247,4.7,-999.0,40,-99.99,,,0.00,Acu-Link.com,2013-01-23 18:09:00,
2013-01-23 13:25:00,4.3,-15.1,29.97,South,180,2.2,-999.0,39,-99.99,,,0.00,Acu-Link.com,2013-01-23 18:25:00,
2013-01-23 13:40:00,4.1,-15.8,29.97,SSW,202,6.3,-999.0,38,-99.99,,,0.00,Acu-Link.com,2013-01-23 18:40:00,
2013-01-23 13:55:00,4.3,-15.6,29.98,WSW,247,4.7,-999.0,38,-99.99,,,0.00,Acu-Link.com,2013-01-23 18:55:00,
2013-01-23 14:11:00,4.6,-15.9,29.98,WNW,292,6.3,-999.0,37,-99.99,,,0.00,Acu-Link.com,2013-01-23 19:11:00,
2013-01-23 14:26:00,5.7,-14.4,29.99,South,180,1.7,-999.0,38,-99.99,,,0.00,Acu-Link.com,2013-01-23 19:26:00,
2013-01-23 14:41:00,4.6,-15.9,29.99,SSW,202,5.8,-999.0,37,-99.99,,,0.00,Acu-Link.com,2013-01-23 19:41:00,
2013-01-23 14:57:00,3.4,-17.5,29.99,North,0,2.2,-999.0,36,-99.99,,,0.00,Acu-Link.com,2013-01-23 19:57:00,
2013-01-23 15:12:00,3.2,-17.7,29.99,WSW,247,4.7,-999.0,36,-99.99,,,0.00,Acu-Link.com,2013-01-23 20:12:00,
2013-01-23 15:27:00,2.1,-18.1,29.99,West,270,3.7,-999.0,37,-99.99,,,0.00,Acu-Link.com,2013-01-23 20:27:00,
2013-01-23 15:42:00,1.4,-18.8,29.99,West,270,4.2,-999.0,37,-99.99,,,0.00,Acu-Link.com,2013-01-23 20:42:00,
2013-01-23 15:58:00,0.7,-18.9,30.00,West,270,4.2,-999.0,38,-99.99,,,0.00,Acu-Link.com,2013-01-23 20:58:00,
2013-01-23 16:13:00,0.1,-18.9,30.00,West,270,3.7,-999.0,39,-99.99,,,0.00,Acu-Link.com,2013-01-23 21:13:00,
2013-01-23 16:28:00,-0.4,-18.9,30.00,West,270,2.2,-999.0,40,-99.99,,,0.00,Acu-Link.com,2013-01-23 21:28:00,
2013-01-23 16:44:00,-0.9,-18.9,30.00,SSW,202,1.1,-999.0,41,-99.99,,,0.00,Acu-Link.com,2013-01-23 21:44:00,
2013-01-23 16:59:00,-1.5,-19.4,30.00,SSE,157,2.2,-999.0,41,-99.99,,,0.00,Acu-Link.com,2013-01-23 21:59:00,
2013-01-23 17:14:00,-2.0,-19.0,30.00,SW,225,1.7,-999.0,43,-99.99,,,0.00,Acu-Link.com,2013-01-23 22:14:00,
2013-01-23 17:30:00,-2.7,-18.7,30.00,SSW,202,0.0,-999.0,45,-99.99,,,0.00,Acu-Link.com,2013-01-23 22:30:00,
2013-01-23 17:45:00,-3.3,-18.9,30.00,South,180,1.7,-999.0,46,-99.99,,,0.00,Acu-Link.com,2013-01-23 22:45:00,
2013-01-23 18:00:00,-3.6,-18.7,30.01,SSE,157,1.7,-999.0,47,-99.99,,,0.00,Acu-Link.com,2013-01-23 23:00:00,
2013-01-23 18:15:00,-4.0,-18.3,30.00,South,180,1.7,-999.0,49,-99.99,,,0.00,Acu-Link.com,2013-01-23 23:15:00,
2013-01-23 18:31:00,-4.5,-18.4,30.01,SSE,157,1.7,-999.0,50,-99.99,,,0.00,Acu-Link.com,2013-01-23 23:31:00,
2013-01-23 18:46:00,-5.3,-19.1,30.01,South,180,0.0,-999.0,50,-99.99,,,0.00,Acu-Link.com,2013-01-23 23:46:00,
2013-01-23 19:01:00,-6.0,-19.8,30.02,WSW,247,0.0,-999.0,50,-99.99,,,0.00,Acu-Link.com,2013-01-24 00:01:00,
2013-01-23 19:16:00,-6.5,-19.8,30.02,South,180,1.7,-999.0,51,-99.99,,,0.00,Acu-Link.com,2013-01-24 00:16:00,
2013-01-23 19:32:00,-6.7,-19.3,30.02,SW,225,1.7,-999.0,53,-99.99,,,0.00,Acu-Link.com,2013-01-24 00:32:00,
2013-01-23 19:47:00,-7.4,-19.2,30.02,West,270,1.7,-999.0,55,-99.99,,,0.00,Acu-Link.com,2013-01-24 00:47:00,
2013-01-23 20:03:00,-8.0,-19.5,30.02,ESE,112,0.0,-999.0,56,-99.99,,,0.00,Acu-Link.com,2013-01-24 01:03:00,
2013-01-23 20:18:00,-8.9,-20.0,30.02,SSW,202,0.0,-999.0,57,-99.99,,,0.00,Acu-Link.com,2013-01-24 01:18:00,
2013-01-23 20:33:00,-9.6,-20.3,30.02,WSW,247,1.7,-999.0,58,-99.99,,,0.00,Acu-Link.com,2013-01-24 01:33:00,
2013-01-23 20:49:00,-9.6,-20.0,30.02,SSW,202,0.0,-999.0,59,-99.99,,,0.00,Acu-Link.com,2013-01-24 01:49:00,
2013-01-23 21:04:00,-10.3,-20.3,30.02,NNW,337,0.0,-999.0,60,-99.99,,,0.00,Acu-Link.com,2013-01-24 02:04:00,
2013-01-23 21:19:00,-10.8,-21.1,30.02,ENE,67,0.0,-999.0,59,-99.99,,,0.00,Acu-Link.com,2013-01-24 02:19:00,
2013-01-23 21:35:00,-11.4,-21.0,30.02,NE,45,0.0,-999.0,61,-99.99,,,0.00,Acu-Link.com,2013-01-24 02:35:00,
2013-01-23 21:50:00,-11.9,-21.2,30.03,NE,45,0.0,-999.0,62,-99.99,,,0.00,Acu-Link.com,2013-01-24 02:50:00,
2013-01-23 22:05:00,-12.5,-21.8,30.03,South,180,1.1,-999.0,62,-99.99,,,0.00,Acu-Link.com,2013-01-24 03:05:00,
2013-01-23 22:21:00,-12.6,-21.9,30.02,ESE,112,0.0,-999.0,62,-99.99,,,0.00,Acu-Link.com,2013-01-24 03:21:00,
2013-01-23 22:36:00,-12.6,-21.3,30.02,ENE,67,0.0,-999.0,64,-99.99,,,0.00,Acu-Link.com,2013-01-24 03:36:00,
2013-01-23 22:51:00,-13.4,-21.7,30.02,North,0,1.1,-999.0,65,-99.99,,,0.00,Acu-Link.com,2013-01-24 03:51:00,
2013-01-23 23:06:00,-13.7,-21.7,30.02,East,90,0.0,-999.0,66,-99.99,,,0.00,Acu-Link.com,2013-01-24 04:06:00,
2013-01-23 23:22:00,-14.3,-22.3,30.03,North,0,0.0,-999.0,66,-99.99,,,0.00,Acu-Link.com,2013-01-24 04:22:00,
2013-01-23 23:37:00,-14.8,-22.8,30.02,SE,135,0.0,-999.0,66,-99.99,,,0.00,Acu-Link.com,2013-01-24 04:37:00,
2013-01-23 23:53:00,-15.2,-22.9,30.02,ESE,112,0.0,-999.0,67,-99.99,,,0.00,Acu-Link.com,2013-01-24 04:53:00,